sensor_id;sensor_type;location;lat;lon;timestamp;P1;durP1;ratioP1;P2;durP2;ratioP2
67665;SDS011;54448;51.472;-2.574;2023-02-28T00:00:42;9.88;;;2.67;;
67665;SDS011;54448;51.472;-2.574;2023-02-28T00:03:08;13.05;;;2.85;;
67665;SDS011;54448;51.472;-2.574;2023-02-28T00:05:33;22.25;;;3.33;;
67665;SDS011;54448;51.472;-2.574;2023-02-28T00:07:59;11.85;;;2.67;;
67665;SDS011;54448;51.472;-2.574;2023-02-28T00:10:25;13.48;;;3.20;;
67665;SDS011;54448;51.472;-2.574;2023-02-28T00:12:53;9.73;;;2.58;;
67665;SDS011;54448;51.472;-2.574;2023-02-28T00:15:22;6.85;;;2.38;;
67665;SDS011;54448;51.472;-2.574;2023-02-28T00:17:48;17.33;;;2.70;;
67665;SDS011;54448;51.472;-2.574;2023-02-28T00:20:13;11.55;;;2.10;;
67665;SDS011;54448;51.472;-2.574;2023-02-28T00:22:40;10.95;;;2.38;;
67665;SDS011;54448;51.472;-2.574;2023-02-28T00:25:10;16.02;;;3.03;;
67665;SDS011;54448;51.472;-2.574;2023-02-28T00:27:36;12.63;;;3.10;;
67665;SDS011;54448;51.472;-2.574;2023-02-28T00:30:03;14.85;;;2.95;;
67665;SDS011;54448;51.472;-2.574;2023-02-28T00:32:29;19.98;;;4.15;;
67665;SDS011;54448;51.472;-2.574;2023-02-28T00:34:55;12.68;;;2.80;;
67665;SDS011;54448;51.472;-2.574;2023-02-28T00:37:20;15.63;;;2.95;;
67665;SDS011;54448;51.472;-2.574;2023-02-28T00:39:46;17.27;;;3.15;;
67665;SDS011;54448;51.472;-2.574;2023-02-28T00:42:11;11.15;;;2.92;;
67665;SDS011;54448;51.472;-2.574;2023-02-28T00:44:36;13.38;;;3.50;;
67665;SDS011;54448;51.472;-2.574;2023-02-28T00:47:02;16.08;;;3.90;;
67665;SDS011;54448;51.472;-2.574;2023-02-28T00:49:27;17.95;;;4.05;;
67665;SDS011;54448;51.472;-2.574;2023-02-28T00:51:53;11.43;;;3.50;;
67665;SDS011;54448;51.472;-2.574;2023-02-28T00:54:19;16.58;;;3.38;;
67665;SDS011;54448;51.472;-2.574;2023-02-28T00:56:45;11.90;;;3.60;;
67665;SDS011;54448;51.472;-2.574;2023-02-28T00:59:13;17.15;;;3.67;;
67665;SDS011;54448;51.472;-2.574;2023-02-28T01:01:40;17.75;;;4.15;;
67665;SDS011;54448;51.472;-2.574;2023-02-28T01:04:06;16.60;;;3.83;;
67665;SDS011;54448;51.472;-2.574;2023-02-28T01:06:32;15.70;;;4.20;;
67665;SDS011;54448;51.472;-2.574;2023-02-28T01:08:58;15.27;;;4.10;;
67665;SDS011;54448;51.472;-2.574;2023-02-28T01:11:23;14.85;;;4.10;;
67665;SDS011;54448;51.472;-2.574;2023-02-28T01:13:49;10.55;;;3.80;;
67665;SDS011;54448;51.472;-2.574;2023-02-28T01:16:14;12.82;;;4.28;;
67665;SDS011;54448;51.472;-2.574;2023-02-28T01:18:40;17.17;;;3.17;;
67665;SDS011;54448;51.472;-2.574;2023-02-28T01:21:09;17.60;;;3.35;;
67665;SDS011;54448;51.472;-2.574;2023-02-28T01:23:37;11.80;;;3.88;;
67665;SDS011;54448;51.472;-2.574;2023-02-28T01:26:09;14.88;;;4.03;;
67665;SDS011;54448;51.472;-2.574;2023-02-28T01:28:36;13.23;;;4.03;;
67665;SDS011;54448;51.472;-2.574;2023-02-28T01:31:02;21.52;;;4.10;;
67665;SDS011;54448;51.472;-2.574;2023-02-28T01:33:27;10.52;;;3.70;;
67665;SDS011;54448;51.472;-2.574;2023-02-28T01:35:59;14.30;;;4.15;;
67665;SDS011;54448;51.472;-2.574;2023-02-28T01:38:26;12.27;;;3.92;;
67665;SDS011;54448;51.472;-2.574;2023-02-28T01:40:52;15.75;;;4.93;;
67665;SDS011;54448;51.472;-2.574;2023-02-28T01:43:22;19.75;;;5.63;;
67665;SDS011;54448;51.472;-2.574;2023-02-28T01:45:49;21.10;;;4.40;;
67665;SDS011;54448;51.472;-2.574;2023-02-28T01:48:15;17.13;;;4.65;;
67665;SDS011;54448;51.472;-2.574;2023-02-28T01:50:41;15.43;;;5.00;;
67665;SDS011;54448;51.472;-2.574;2023-02-28T01:53:10;18.52;;;4.65;;
67665;SDS011;54448;51.472;-2.574;2023-02-28T01:55:37;14.70;;;4.35;;
67665;SDS011;54448;51.472;-2.574;2023-02-28T01:58:04;18.60;;;4.90;;
67665;SDS011;54448;51.472;-2.574;2023-02-28T02:00:31;15.73;;;4.35;;
67665;SDS011;54448;51.472;-2.574;2023-02-28T02:02:57;17.10;;;4.13;;
67665;SDS011;54448;51.472;-2.574;2023-02-28T02:05:25;19.55;;;4.80;;
67665;SDS011;54448;51.472;-2.574;2023-02-28T02:07:52;16.30;;;4.10;;
67665;SDS011;54448;51.472;-2.574;2023-02-28T02:10:21;13.80;;;4.43;;
67665;SDS011;54448;51.472;-2.574;2023-02-28T02:18:04;14.60;;;4.22;;
67665;SDS011;54448;51.472;-2.574;2023-02-28T02:20:54;13.32;;;4.05;;
67665;SDS011;54448;51.472;-2.574;2023-02-28T02:34:22;22.20;;;4.65;;
67665;SDS011;54448;51.472;-2.574;2023-02-28T02:42:45;16.77;;;4.28;;
67665;SDS011;54448;51.472;-2.574;2023-02-28T02:45:35;15.55;;;3.85;;
67665;SDS011;54448;51.472;-2.574;2023-02-28T02:48:04;12.43;;;3.38;;
67665;SDS011;54448;51.472;-2.574;2023-02-28T02:50:35;15.20;;;3.90;;
67665;SDS011;54448;51.472;-2.574;2023-02-28T02:53:02;9.02;;;3.13;;
67665;SDS011;54448;51.472;-2.574;2023-02-28T02:55:29;15.10;;;3.55;;
67665;SDS011;54448;51.472;-2.574;2023-02-28T02:58:01;7.35;;;3.08;;
67665;SDS011;54448;51.472;-2.574;2023-02-28T03:00:30;12.75;;;3.90;;
67665;SDS011;54448;51.472;-2.574;2023-02-28T03:03:01;9.65;;;3.40;;
67665;SDS011;54448;51.472;-2.574;2023-02-28T03:05:28;13.80;;;3.92;;
67665;SDS011;54448;51.472;-2.574;2023-02-28T03:07:59;12.93;;;4.43;;
67665;SDS011;54448;51.472;-2.574;2023-02-28T03:10:31;8.77;;;3.55;;
67665;SDS011;54448;51.472;-2.574;2023-02-28T03:13:09;16.50;;;3.63;;
67665;SDS011;54448;51.472;-2.574;2023-02-28T03:15:43;19.38;;;4.43;;
67665;SDS011;54448;51.472;-2.574;2023-02-28T03:21:14;20.02;;;3.85;;
67665;SDS011;54448;51.472;-2.574;2023-02-28T03:26:54;15.35;;;3.70;;
67665;SDS011;54448;51.472;-2.574;2023-02-28T03:32:08;14.38;;;3.25;;
67665;SDS011;54448;51.472;-2.574;2023-02-28T03:34:46;13.13;;;3.45;;
67665;SDS011;54448;51.472;-2.574;2023-02-28T03:37:36;11.15;;;3.22;;
67665;SDS011;54448;51.472;-2.574;2023-02-28T03:40:13;11.88;;;3.38;;
67665;SDS011;54448;51.472;-2.574;2023-02-28T03:42:43;13.05;;;4.18;;
67665;SDS011;54448;51.472;-2.574;2023-02-28T03:45:17;12.07;;;3.58;;
67665;SDS011;54448;51.472;-2.574;2023-02-28T03:47:54;9.98;;;3.50;;
67665;SDS011;54448;51.472;-2.574;2023-02-28T03:50:44;8.80;;;2.80;;
67665;SDS011;54448;51.472;-2.574;2023-02-28T03:53:10;13.13;;;3.38;;
67665;SDS011;54448;51.472;-2.574;2023-02-28T03:55:44;11.73;;;3.58;;
67665;SDS011;54448;51.472;-2.574;2023-02-28T03:58:21;8.52;;;3.40;;
67665;SDS011;54448;51.472;-2.574;2023-02-28T04:00:57;21.52;;;3.85;;
67665;SDS011;54448;51.472;-2.574;2023-02-28T04:03:33;7.03;;;3.33;;
67665;SDS011;54448;51.472;-2.574;2023-02-28T04:06:01;12.57;;;3.53;;
67665;SDS011;54448;51.472;-2.574;2023-02-28T04:08:27;10.65;;;3.70;;
67665;SDS011;54448;51.472;-2.574;2023-02-28T04:10:57;12.95;;;3.70;;
67665;SDS011;54448;51.472;-2.574;2023-02-28T04:13:29;10.32;;;3.72;;
67665;SDS011;54448;51.472;-2.574;2023-02-28T04:15:54;12.10;;;3.53;;
67665;SDS011;54448;51.472;-2.574;2023-02-28T04:18:20;13.02;;;3.90;;
67665;SDS011;54448;51.472;-2.574;2023-02-28T04:20:45;14.48;;;4.20;;
67665;SDS011;54448;51.472;-2.574;2023-02-28T04:23:10;12.80;;;4.35;;
67665;SDS011;54448;51.472;-2.574;2023-02-28T04:25:36;12.93;;;4.57;;
67665;SDS011;54448;51.472;-2.574;2023-02-28T04:28:01;11.52;;;4.03;;
67665;SDS011;54448;51.472;-2.574;2023-02-28T04:30:26;14.15;;;4.35;;
67665;SDS011;54448;51.472;-2.574;2023-02-28T04:32:52;14.05;;;4.63;;
67665;SDS011;54448;51.472;-2.574;2023-02-28T04:35:17;16.85;;;4.15;;
67665;SDS011;54448;51.472;-2.574;2023-02-28T04:37:42;14.75;;;3.80;;
67665;SDS011;54448;51.472;-2.574;2023-02-28T04:40:08;10.07;;;3.50;;
67665;SDS011;54448;51.472;-2.574;2023-02-28T04:42:34;14.85;;;4.15;;
67665;SDS011;54448;51.472;-2.574;2023-02-28T04:45:01;15.15;;;4.50;;
67665;SDS011;54448;51.472;-2.574;2023-02-28T04:47:28;18.73;;;4.93;;
67665;SDS011;54448;51.472;-2.574;2023-02-28T04:49:53;15.05;;;4.80;;
67665;SDS011;54448;51.472;-2.574;2023-02-28T04:52:18;14.27;;;5.03;;
67665;SDS011;54448;51.472;-2.574;2023-02-28T04:54:44;16.10;;;5.20;;
67665;SDS011;54448;51.472;-2.574;2023-02-28T04:57:10;15.85;;;4.65;;
67665;SDS011;54448;51.472;-2.574;2023-02-28T04:59:35;17.17;;;4.75;;
67665;SDS011;54448;51.472;-2.574;2023-02-28T05:02:00;14.15;;;4.55;;
67665;SDS011;54448;51.472;-2.574;2023-02-28T05:04:31;12.23;;;4.53;;
67665;SDS011;54448;51.472;-2.574;2023-02-28T05:06:59;11.05;;;4.60;;
67665;SDS011;54448;51.472;-2.574;2023-02-28T05:09:24;10.65;;;4.82;;
67665;SDS011;54448;51.472;-2.574;2023-02-28T05:11:50;15.35;;;5.13;;
67665;SDS011;54448;51.472;-2.574;2023-02-28T05:14:15;14.07;;;4.97;;
67665;SDS011;54448;51.472;-2.574;2023-02-28T05:16:41;16.27;;;5.80;;
67665;SDS011;54448;51.472;-2.574;2023-02-28T05:19:06;12.43;;;5.18;;
67665;SDS011;54448;51.472;-2.574;2023-02-28T05:21:32;13.77;;;5.55;;
67665;SDS011;54448;51.472;-2.574;2023-02-28T05:24:00;15.88;;;4.82;;
67665;SDS011;54448;51.472;-2.574;2023-02-28T05:26:27;11.98;;;4.90;;
67665;SDS011;54448;51.472;-2.574;2023-02-28T05:28:52;12.77;;;5.78;;
67665;SDS011;54448;51.472;-2.574;2023-02-28T05:31:18;14.23;;;5.63;;
67665;SDS011;54448;51.472;-2.574;2023-02-28T05:33:43;18.48;;;6.72;;
67665;SDS011;54448;51.472;-2.574;2023-02-28T05:36:09;18.42;;;6.03;;
67665;SDS011;54448;51.472;-2.574;2023-02-28T05:38:34;13.00;;;5.97;;
67665;SDS011;54448;51.472;-2.574;2023-02-28T05:41:00;17.17;;;5.82;;
67665;SDS011;54448;51.472;-2.574;2023-02-28T05:43:25;14.57;;;6.07;;
67665;SDS011;54448;51.472;-2.574;2023-02-28T05:45:50;12.43;;;5.75;;
67665;SDS011;54448;51.472;-2.574;2023-02-28T05:48:16;16.05;;;6.22;;
67665;SDS011;54448;51.472;-2.574;2023-02-28T05:50:43;24.02;;;7.82;;
67665;SDS011;54448;51.472;-2.574;2023-02-28T05:53:10;17.67;;;7.20;;
67665;SDS011;54448;51.472;-2.574;2023-02-28T05:55:36;18.58;;;6.75;;
67665;SDS011;54448;51.472;-2.574;2023-02-28T05:58:02;14.43;;;5.97;;
67665;SDS011;54448;51.472;-2.574;2023-02-28T06:00:27;14.93;;;6.22;;
67665;SDS011;54448;51.472;-2.574;2023-02-28T06:02:53;14.27;;;6.40;;
67665;SDS011;54448;51.472;-2.574;2023-02-28T06:05:21;14.95;;;7.32;;
67665;SDS011;54448;51.472;-2.574;2023-02-28T06:07:46;19.00;;;6.65;;
67665;SDS011;54448;51.472;-2.574;2023-02-28T06:10:12;17.52;;;7.75;;
67665;SDS011;54448;51.472;-2.574;2023-02-28T06:12:38;15.05;;;7.18;;
67665;SDS011;54448;51.472;-2.574;2023-02-28T06:15:03;17.33;;;7.40;;
67665;SDS011;54448;51.472;-2.574;2023-02-28T06:17:29;20.90;;;8.65;;
67665;SDS011;54448;51.472;-2.574;2023-02-28T06:19:54;20.30;;;9.30;;
67665;SDS011;54448;51.472;-2.574;2023-02-28T06:22:20;23.85;;;9.45;;
67665;SDS011;54448;51.472;-2.574;2023-02-28T06:24:45;21.60;;;10.30;;
67665;SDS011;54448;51.472;-2.574;2023-02-28T06:27:10;27.58;;;11.20;;
67665;SDS011;54448;51.472;-2.574;2023-02-28T06:29:36;22.85;;;11.60;;
67665;SDS011;54448;51.472;-2.574;2023-02-28T06:32:04;24.45;;;11.20;;
67665;SDS011;54448;51.472;-2.574;2023-02-28T06:34:30;24.58;;;11.32;;
67665;SDS011;54448;51.472;-2.574;2023-02-28T06:36:55;26.30;;;12.13;;
67665;SDS011;54448;51.472;-2.574;2023-02-28T06:39:21;33.55;;;11.98;;
67665;SDS011;54448;51.472;-2.574;2023-02-28T06:41:46;26.33;;;11.02;;
67665;SDS011;54448;51.472;-2.574;2023-02-28T06:44:13;28.13;;;12.25;;
67665;SDS011;54448;51.472;-2.574;2023-02-28T06:46:40;26.98;;;11.70;;
67665;SDS011;54448;51.472;-2.574;2023-02-28T06:49:06;32.28;;;13.98;;
67665;SDS011;54448;51.472;-2.574;2023-02-28T06:51:34;34.80;;;13.10;;
67665;SDS011;54448;51.472;-2.574;2023-02-28T06:54:00;29.75;;;13.02;;
67665;SDS011;54448;51.472;-2.574;2023-02-28T06:56:25;27.60;;;13.18;;
67665;SDS011;54448;51.472;-2.574;2023-02-28T06:58:51;32.08;;;13.27;;
67665;SDS011;54448;51.472;-2.574;2023-02-28T07:01:17;26.23;;;12.55;;
67665;SDS011;54448;51.472;-2.574;2023-02-28T07:03:43;28.45;;;12.07;;
67665;SDS011;54448;51.472;-2.574;2023-02-28T07:06:09;31.45;;;13.73;;
67665;SDS011;54448;51.472;-2.574;2023-02-28T07:08:35;31.83;;;13.57;;
67665;SDS011;54448;51.472;-2.574;2023-02-28T07:11:01;34.38;;;14.85;;
67665;SDS011;54448;51.472;-2.574;2023-02-28T07:13:26;33.65;;;14.40;;
67665;SDS011;54448;51.472;-2.574;2023-02-28T07:15:55;36.53;;;14.73;;
67665;SDS011;54448;51.472;-2.574;2023-02-28T07:18:22;35.40;;;15.00;;
67665;SDS011;54448;51.472;-2.574;2023-02-28T07:20:47;33.38;;;14.82;;
67665;SDS011;54448;51.472;-2.574;2023-02-28T07:23:12;29.70;;;13.90;;
67665;SDS011;54448;51.472;-2.574;2023-02-28T07:25:38;35.45;;;14.48;;
67665;SDS011;54448;51.472;-2.574;2023-02-28T07:28:04;38.83;;;15.48;;
67665;SDS011;54448;51.472;-2.574;2023-02-28T07:30:29;33.08;;;13.70;;
67665;SDS011;54448;51.472;-2.574;2023-02-28T07:32:55;33.10;;;14.40;;
67665;SDS011;54448;51.472;-2.574;2023-02-28T07:35:21;30.27;;;13.32;;
67665;SDS011;54448;51.472;-2.574;2023-02-28T07:37:46;33.55;;;14.45;;
67665;SDS011;54448;51.472;-2.574;2023-02-28T07:40:12;33.45;;;13.60;;
67665;SDS011;54448;51.472;-2.574;2023-02-28T07:42:38;32.75;;;14.45;;
67665;SDS011;54448;51.472;-2.574;2023-02-28T07:45:05;30.88;;;12.90;;
67665;SDS011;54448;51.472;-2.574;2023-02-28T07:47:30;33.33;;;14.20;;
67665;SDS011;54448;51.472;-2.574;2023-02-28T07:49:56;29.73;;;12.48;;
67665;SDS011;54448;51.472;-2.574;2023-02-28T07:52:22;34.20;;;13.38;;
67665;SDS011;54448;51.472;-2.574;2023-02-28T07:54:51;26.63;;;12.38;;
67665;SDS011;54448;51.472;-2.574;2023-02-28T07:57:16;26.35;;;11.63;;
67665;SDS011;54448;51.472;-2.574;2023-02-28T07:59:42;25.27;;;13.35;;
67665;SDS011;54448;51.472;-2.574;2023-02-28T08:02:13;28.23;;;12.18;;
67665;SDS011;54448;51.472;-2.574;2023-02-28T08:04:40;30.65;;;11.90;;
67665;SDS011;54448;51.472;-2.574;2023-02-28T08:07:05;26.83;;;13.27;;
67665;SDS011;54448;51.472;-2.574;2023-02-28T08:09:31;26.00;;;12.68;;
67665;SDS011;54448;51.472;-2.574;2023-02-28T08:11:56;39.00;;;20.52;;
67665;SDS011;54448;51.472;-2.574;2023-02-28T08:14:22;30.10;;;13.35;;
67665;SDS011;54448;51.472;-2.574;2023-02-28T08:16:47;26.85;;;12.48;;
67665;SDS011;54448;51.472;-2.574;2023-02-28T08:19:12;28.63;;;13.57;;
67665;SDS011;54448;51.472;-2.574;2023-02-28T08:21:38;26.73;;;11.90;;
67665;SDS011;54448;51.472;-2.574;2023-02-28T08:24:04;33.00;;;14.05;;
67665;SDS011;54448;51.472;-2.574;2023-02-28T08:26:30;34.50;;;13.23;;
67665;SDS011;54448;51.472;-2.574;2023-02-28T08:28:55;31.10;;;12.30;;
67665;SDS011;54448;51.472;-2.574;2023-02-28T08:31:20;27.50;;;11.68;;
67665;SDS011;54448;51.472;-2.574;2023-02-28T08:33:47;30.08;;;12.10;;
67665;SDS011;54448;51.472;-2.574;2023-02-28T08:36:14;29.08;;;10.32;;
67665;SDS011;54448;51.472;-2.574;2023-02-28T08:38:40;20.48;;;9.40;;
67665;SDS011;54448;51.472;-2.574;2023-02-28T08:41:06;21.45;;;9.52;;
67665;SDS011;54448;51.472;-2.574;2023-02-28T08:43:34;22.08;;;10.13;;
67665;SDS011;54448;51.472;-2.574;2023-02-28T08:45:59;18.63;;;9.23;;
67665;SDS011;54448;51.472;-2.574;2023-02-28T08:48:26;26.58;;;10.55;;
67665;SDS011;54448;51.472;-2.574;2023-02-28T08:51:02;26.33;;;10.90;;
67665;SDS011;54448;51.472;-2.574;2023-02-28T08:53:29;29.70;;;10.18;;
67665;SDS011;54448;51.472;-2.574;2023-02-28T08:55:55;22.45;;;10.23;;
67665;SDS011;54448;51.472;-2.574;2023-02-28T08:58:24;27.17;;;11.02;;
67665;SDS011;54448;51.472;-2.574;2023-02-28T09:00:50;27.40;;;12.13;;
67665;SDS011;54448;51.472;-2.574;2023-02-28T09:03:15;28.33;;;11.65;;
67665;SDS011;54448;51.472;-2.574;2023-02-28T09:05:42;23.75;;;11.45;;
67665;SDS011;54448;51.472;-2.574;2023-02-28T09:08:25;27.67;;;12.45;;
67665;SDS011;54448;51.472;-2.574;2023-02-28T09:10:52;29.60;;;12.73;;
67665;SDS011;54448;51.472;-2.574;2023-02-28T09:13:18;30.88;;;12.68;;
67665;SDS011;54448;51.472;-2.574;2023-02-28T09:15:43;30.02;;;13.88;;
67665;SDS011;54448;51.472;-2.574;2023-02-28T09:18:10;34.88;;;13.45;;
67665;SDS011;54448;51.472;-2.574;2023-02-28T09:20:39;29.00;;;12.88;;
67665;SDS011;54448;51.472;-2.574;2023-02-28T09:23:05;31.02;;;13.45;;
67665;SDS011;54448;51.472;-2.574;2023-02-28T09:25:34;31.88;;;14.15;;
67665;SDS011;54448;51.472;-2.574;2023-02-28T09:27:59;33.90;;;13.77;;
67665;SDS011;54448;51.472;-2.574;2023-02-28T09:30:25;30.95;;;13.77;;
67665;SDS011;54448;51.472;-2.574;2023-02-28T09:32:50;32.33;;;13.65;;
67665;SDS011;54448;51.472;-2.574;2023-02-28T09:35:20;28.85;;;12.75;;
67665;SDS011;54448;51.472;-2.574;2023-02-28T09:37:47;33.65;;;12.30;;
67665;SDS011;54448;51.472;-2.574;2023-02-28T09:40:13;32.97;;;14.18;;
67665;SDS011;54448;51.472;-2.574;2023-02-28T09:42:42;36.13;;;13.43;;
67665;SDS011;54448;51.472;-2.574;2023-02-28T09:45:19;32.00;;;13.32;;
67665;SDS011;54448;51.472;-2.574;2023-02-28T09:47:50;30.80;;;13.27;;
67665;SDS011;54448;51.472;-2.574;2023-02-28T09:50:22;30.23;;;13.45;;
67665;SDS011;54448;51.472;-2.574;2023-02-28T09:52:54;29.73;;;14.05;;
67665;SDS011;54448;51.472;-2.574;2023-02-28T09:55:30;24.45;;;11.45;;
67665;SDS011;54448;51.472;-2.574;2023-02-28T09:58:00;36.78;;;12.90;;
67665;SDS011;54448;51.472;-2.574;2023-02-28T10:00:36;29.48;;;12.40;;
67665;SDS011;54448;51.472;-2.574;2023-02-28T10:03:16;28.20;;;12.25;;
67665;SDS011;54448;51.472;-2.574;2023-02-28T10:11:22;24.60;;;11.25;;
67665;SDS011;54448;51.472;-2.574;2023-02-28T10:16:29;25.42;;;11.63;;
67665;SDS011;54448;51.472;-2.574;2023-02-28T10:19:10;31.02;;;12.00;;
67665;SDS011;54448;51.472;-2.574;2023-02-28T10:21:59;30.45;;;12.50;;
67665;SDS011;54448;51.472;-2.574;2023-02-28T10:24:32;28.88;;;11.82;;
67665;SDS011;54448;51.472;-2.574;2023-02-28T10:27:04;22.80;;;10.57;;
67665;SDS011;54448;51.472;-2.574;2023-02-28T10:29:45;29.45;;;11.55;;
67665;SDS011;54448;51.472;-2.574;2023-02-28T10:32:13;27.33;;;11.23;;
67665;SDS011;54448;51.472;-2.574;2023-02-28T10:34:43;24.05;;;10.10;;
67665;SDS011;54448;51.472;-2.574;2023-02-28T10:37:10;24.70;;;10.27;;
67665;SDS011;54448;51.472;-2.574;2023-02-28T10:39:41;25.38;;;11.32;;
67665;SDS011;54448;51.472;-2.574;2023-02-28T10:47:48;24.40;;;11.32;;
67665;SDS011;54448;51.472;-2.574;2023-02-28T11:01:19;25.48;;;9.80;;
67665;SDS011;54448;51.472;-2.574;2023-02-28T11:03:46;33.63;;;11.90;;
67665;SDS011;54448;51.472;-2.574;2023-02-28T11:06:16;25.55;;;10.75;;
67665;SDS011;54448;51.472;-2.574;2023-02-28T11:08:53;25.10;;;9.70;;
67665;SDS011;54448;51.472;-2.574;2023-02-28T11:11:20;22.63;;;9.93;;
67665;SDS011;54448;51.472;-2.574;2023-02-28T11:13:46;25.48;;;9.90;;
67665;SDS011;54448;51.472;-2.574;2023-02-28T11:16:13;24.50;;;9.38;;
67665;SDS011;54448;51.472;-2.574;2023-02-28T11:18:47;17.35;;;7.97;;
67665;SDS011;54448;51.472;-2.574;2023-02-28T11:21:25;27.55;;;9.50;;
67665;SDS011;54448;51.472;-2.574;2023-02-28T11:23:53;18.85;;;8.18;;
67665;SDS011;54448;51.472;-2.574;2023-02-28T11:26:36;21.55;;;8.82;;
67665;SDS011;54448;51.472;-2.574;2023-02-28T11:29:03;25.73;;;10.55;;
67665;SDS011;54448;51.472;-2.574;2023-02-28T11:31:44;20.63;;;8.63;;
67665;SDS011;54448;51.472;-2.574;2023-02-28T11:34:29;30.50;;;10.05;;
67665;SDS011;54448;51.472;-2.574;2023-02-28T11:36:56;22.65;;;9.23;;
67665;SDS011;54448;51.472;-2.574;2023-02-28T11:39:22;16.73;;;7.88;;
67665;SDS011;54448;51.472;-2.574;2023-02-28T11:47:45;21.00;;;9.85;;
67665;SDS011;54448;51.472;-2.574;2023-02-28T11:50:21;25.38;;;10.50;;
67665;SDS011;54448;51.472;-2.574;2023-02-28T12:04:04;19.60;;;8.32;;
67665;SDS011;54448;51.472;-2.574;2023-02-28T12:06:46;11.25;;;5.75;;
67665;SDS011;54448;51.472;-2.574;2023-02-28T12:12:14;22.55;;;8.13;;
67665;SDS011;54448;51.472;-2.574;2023-02-28T12:20:52;15.52;;;7.45;;
67665;SDS011;54448;51.472;-2.574;2023-02-28T12:28:56;15.43;;;5.72;;
67665;SDS011;54448;51.472;-2.574;2023-02-28T12:31:26;13.10;;;5.90;;
67665;SDS011;54448;51.472;-2.574;2023-02-28T12:33:56;12.43;;;5.57;;
67665;SDS011;54448;51.472;-2.574;2023-02-28T12:36:25;10.65;;;4.78;;
67665;SDS011;54448;51.472;-2.574;2023-02-28T12:38:55;10.57;;;5.00;;
67665;SDS011;54448;51.472;-2.574;2023-02-28T12:41:26;12.18;;;4.82;;
67665;SDS011;54448;51.472;-2.574;2023-02-28T12:44:09;11.40;;;5.43;;
67665;SDS011;54448;51.472;-2.574;2023-02-28T12:46:48;11.70;;;5.53;;
67665;SDS011;54448;51.472;-2.574;2023-02-28T12:49:17;11.82;;;5.22;;
67665;SDS011;54448;51.472;-2.574;2023-02-28T12:51:47;15.30;;;5.35;;
67665;SDS011;54448;51.472;-2.574;2023-02-28T12:59:53;10.40;;;4.55;;
67665;SDS011;54448;51.472;-2.574;2023-02-28T13:11:38;10.70;;;5.13;;
67665;SDS011;54448;51.472;-2.574;2023-02-28T13:14:19;11.80;;;5.40;;
67665;SDS011;54448;51.472;-2.574;2023-02-28T13:19:33;12.57;;;5.22;;
67665;SDS011;54448;51.472;-2.574;2023-02-28T13:23:16;14.18;;;6.03;;
67665;SDS011;54448;51.472;-2.574;2023-02-28T13:27:55;16.48;;;6.60;;
67665;SDS011;54448;51.472;-2.574;2023-02-28T13:36:23;16.83;;;6.30;;
67665;SDS011;54448;51.472;-2.574;2023-02-28T13:57:50;14.40;;;6.80;;
67665;SDS011;54448;51.472;-2.574;2023-02-28T14:06:28;8.98;;;4.40;;
67665;SDS011;54448;51.472;-2.574;2023-02-28T14:17:00;8.18;;;3.55;;
67665;SDS011;54448;51.472;-2.574;2023-02-28T14:19:27;8.75;;;4.00;;
67665;SDS011;54448;51.472;-2.574;2023-02-28T14:22:04;14.63;;;6.72;;
67665;SDS011;54448;51.472;-2.574;2023-02-28T14:36:51;10.15;;;4.03;;
67665;SDS011;54448;51.472;-2.574;2023-02-28T14:39:16;10.20;;;3.80;;
67665;SDS011;54448;51.472;-2.574;2023-02-28T14:41:44;9.07;;;4.80;;
67665;SDS011;54448;51.472;-2.574;2023-02-28T14:44:20;10.40;;;5.07;;
67665;SDS011;54448;51.472;-2.574;2023-02-28T14:46:50;10.05;;;4.03;;
67665;SDS011;54448;51.472;-2.574;2023-02-28T14:49:24;9.50;;;4.63;;
67665;SDS011;54448;51.472;-2.574;2023-02-28T14:52:12;8.25;;;3.28;;
67665;SDS011;54448;51.472;-2.574;2023-02-28T14:54:51;6.75;;;3.83;;
67665;SDS011;54448;51.472;-2.574;2023-02-28T15:02:35;6.03;;;3.17;;
67665;SDS011;54448;51.472;-2.574;2023-02-28T15:05:10;6.43;;;3.38;;
67665;SDS011;54448;51.472;-2.574;2023-02-28T15:07:47;7.50;;;3.28;;
67665;SDS011;54448;51.472;-2.574;2023-02-28T15:10:20;6.95;;;3.08;;
67665;SDS011;54448;51.472;-2.574;2023-02-28T15:12:52;9.68;;;4.05;;
67665;SDS011;54448;51.472;-2.574;2023-02-28T15:15:21;6.88;;;3.42;;
67665;SDS011;54448;51.472;-2.574;2023-02-28T15:18:10;9.95;;;3.50;;
67665;SDS011;54448;51.472;-2.574;2023-02-28T15:20:59;6.93;;;3.40;;
67665;SDS011;54448;51.472;-2.574;2023-02-28T15:23:28;7.88;;;3.47;;
67665;SDS011;54448;51.472;-2.574;2023-02-28T15:25:54;9.52;;;3.90;;
67665;SDS011;54448;51.472;-2.574;2023-02-28T15:28:20;7.68;;;3.50;;
67665;SDS011;54448;51.472;-2.574;2023-02-28T15:30:55;5.72;;;3.13;;
67665;SDS011;54448;51.472;-2.574;2023-02-28T15:33:32;6.40;;;3.40;;
67665;SDS011;54448;51.472;-2.574;2023-02-28T15:38:35;9.70;;;4.22;;
67665;SDS011;54448;51.472;-2.574;2023-02-28T15:41:01;8.35;;;4.13;;
67665;SDS011;54448;51.472;-2.574;2023-02-28T15:43:28;9.05;;;4.30;;
67665;SDS011;54448;51.472;-2.574;2023-02-28T15:45:55;7.22;;;3.78;;
67665;SDS011;54448;51.472;-2.574;2023-02-28T15:48:22;8.77;;;3.85;;
67665;SDS011;54448;51.472;-2.574;2023-02-28T15:51:06;11.85;;;4.25;;
67665;SDS011;54448;51.472;-2.574;2023-02-28T15:54:01;7.88;;;3.97;;
67665;SDS011;54448;51.472;-2.574;2023-02-28T15:56:33;7.28;;;3.83;;
67665;SDS011;54448;51.472;-2.574;2023-02-28T15:59:03;8.07;;;3.72;;
67665;SDS011;54448;51.472;-2.574;2023-02-28T16:01:32;9.80;;;3.55;;
67665;SDS011;54448;51.472;-2.574;2023-02-28T16:04:03;6.88;;;3.47;;
67665;SDS011;54448;51.472;-2.574;2023-02-28T16:08:59;6.10;;;3.10;;
67665;SDS011;54448;51.472;-2.574;2023-02-28T16:11:24;7.70;;;3.45;;
67665;SDS011;54448;51.472;-2.574;2023-02-28T16:13:50;5.53;;;3.28;;
67665;SDS011;54448;51.472;-2.574;2023-02-28T16:16:20;7.75;;;3.00;;
67665;SDS011;54448;51.472;-2.574;2023-02-28T16:18:46;9.65;;;3.53;;
67665;SDS011;54448;51.472;-2.574;2023-02-28T16:21:12;5.82;;;3.50;;
67665;SDS011;54448;51.472;-2.574;2023-02-28T16:23:37;8.30;;;3.22;;
67665;SDS011;54448;51.472;-2.574;2023-02-28T16:26:03;5.07;;;2.85;;
67665;SDS011;54448;51.472;-2.574;2023-02-28T16:28:33;5.35;;;3.10;;
67665;SDS011;54448;51.472;-2.574;2023-02-28T16:31:00;6.22;;;3.40;;
67665;SDS011;54448;51.472;-2.574;2023-02-28T16:33:27;7.15;;;3.15;;
67665;SDS011;54448;51.472;-2.574;2023-02-28T16:35:53;6.68;;;3.22;;
67665;SDS011;54448;51.472;-2.574;2023-02-28T16:38:18;7.47;;;2.92;;
67665;SDS011;54448;51.472;-2.574;2023-02-28T16:40:44;5.63;;;3.10;;
67665;SDS011;54448;51.472;-2.574;2023-02-28T16:43:13;5.80;;;3.33;;
67665;SDS011;54448;51.472;-2.574;2023-02-28T16:45:40;4.28;;;2.60;;
67665;SDS011;54448;51.472;-2.574;2023-02-28T16:48:07;6.97;;;2.88;;
67665;SDS011;54448;51.472;-2.574;2023-02-28T16:50:37;5.50;;;2.95;;
67665;SDS011;54448;51.472;-2.574;2023-02-28T16:53:03;5.88;;;2.85;;
67665;SDS011;54448;51.472;-2.574;2023-02-28T16:55:29;8.23;;;2.80;;
67665;SDS011;54448;51.472;-2.574;2023-02-28T16:57:55;8.07;;;2.40;;
67665;SDS011;54448;51.472;-2.574;2023-02-28T17:00:21;10.07;;;2.90;;
67665;SDS011;54448;51.472;-2.574;2023-02-28T17:02:48;5.28;;;2.38;;
67665;SDS011;54448;51.472;-2.574;2023-02-28T17:05:13;5.00;;;2.70;;
67665;SDS011;54448;51.472;-2.574;2023-02-28T17:07:40;5.47;;;2.58;;
67665;SDS011;54448;51.472;-2.574;2023-02-28T17:10:13;8.50;;;3.15;;
67665;SDS011;54448;51.472;-2.574;2023-02-28T17:12:43;4.88;;;2.38;;
67665;SDS011;54448;51.472;-2.574;2023-02-28T17:15:10;4.93;;;2.55;;
67665;SDS011;54448;51.472;-2.574;2023-02-28T17:17:36;6.82;;;2.75;;
67665;SDS011;54448;51.472;-2.574;2023-02-28T17:20:02;8.20;;;3.30;;